Time;durP1;ratioP1;P1;durP2;ratioP2;P2;SDS_P1;SDS_P2;PMS_P1;PMS_P2;Temp;Humidity;BMP_temperature;BMP_pressure;BME280_temperature;BME280_humidity;BME280_pressure;Samples;Min_cycle;Max_cycle;Signal;HPM_P1;HPM_P2
2024/02/20 00:01:44;;;;;;;;;29.00;25.00;;;;;5.11;100.00;100149.03;6298788;20;2500308;-46
2024/02/20 00:04:16;;;;;;;;;33.00;28.50;;;;;4.87;100.00;100140.03;6269707;20;2847766;-45
2024/02/20 00:06:46;;;;;;;;;56.00;41.00;;;;;4.75;100.00;100146.59;6271324;20;3616997;-47
2024/02/20 00:09:14;;;;;;;;;47.00;41.00;;;;;4.42;100.00;100153.78;6301989;20;2875294;-47
2024/02/20 00:11:46;;;;;;;;;52.50;42.00;;;;;4.52;100.00;100145.50;6271489;20;2857638;-46
2024/02/20 00:14:15;;;;;;;;;36.00;32.00;;;;;4.78;100.00;100144.72;6270401;20;2855611;-47
2024/02/20 00:16:44;;;;;;;;;18.67;18.00;;;;;5.21;100.00;100139.81;6270275;20;3564881;-45
2024/02/20 00:19:12;;;;;;;;;12.00;12.00;;;;;5.54;100.00;100145.84;6274143;20;2807665;-46
2024/02/20 00:21:41;;;;;;;;;12.00;11.00;;;;;5.97;100.00;100151.53;6271649;20;2783669;-47
2024/02/20 00:24:09;;;;;;;;;12.50;9.50;;;;;6.01;100.00;100150.50;6271190;20;2781556;-47
2024/02/20 00:26:38;;;;;;;;;11.50;11.00;;;;;6.01;100.00;100154.03;6273777;20;2785721;-46
2024/02/20 00:29:06;;;;;;;;;8.00;6.00;;;;;6.04;100.00;100155.72;6273736;20;2747223;-48
2024/02/20 00:31:36;;;;;;;;;12.60;10.60;;;;;6.07;100.00;100158.28;6295190;20;2787829;-51
2024/02/20 00:34:04;;;;;;;;;9.50;8.00;;;;;6.03;100.00;100152.19;6271382;20;2750557;-47
2024/02/20 00:36:35;;;;;;;;;11.50;8.83;;;;;6.12;100.00;100149.19;6313512;20;1804440;-48
2024/02/20 00:39:03;;;;;;;;;8.75;8.00;;;;;6.07;100.00;100152.94;6294230;20;1794074;-48
2024/02/20 00:41:31;;;;;;;;;8.00;8.00;;;;;6.20;100.00;100151.56;6304900;20;2742024;-47
2024/02/20 00:44:02;;;;;;;;;9.67;8.50;;;;;6.20;100.00;100151.56;6349175;20;1800059;-47
2024/02/20 00:46:30;;;;;;;;;7.50;7.00;;;;;6.26;100.00;100145.16;6293130;20;1810750;-47
2024/02/20 00:48:59;;;;;;;;;8.00;8.00;;;;;6.17;100.00;100146.34;6325746;20;1816698;-46
2024/02/20 00:51:28;;;;;;;;;8.00;7.00;;;;;6.26;100.00;100129.16;6324278;20;1813998;-47
2024/02/20 00:53:56;;;;;;;;;9.00;9.00;;;;;6.18;100.00;100134.75;6321986;20;1806662;-45
2024/02/20 00:56:24;;;;;;;;;11.00;9.00;;;;;6.26;100.00;100134.47;6307032;20;2769068;-47
2024/02/20 00:58:52;;;;;;;;;10.00;8.50;;;;;6.26;100.00;100132.69;6273308;20;2761838;-47
2024/02/20 01:01:21;;;;;;;;;7.33;6.00;;;;;6.08;100.00;100134.25;6288375;20;1810866;-49
2024/02/20 01:03:49;;;;;;;;;8.00;8.00;;;;;6.07;100.00;100129.81;6305385;20;2748194;-46
2024/02/20 01:06:19;;;;;;;;;8.00;8.00;;;;;6.07;100.00;100132.47;6271821;20;2748195;-45
2024/02/20 01:08:47;;;;;;;;;11.00;7.00;;;;;5.78;100.00;100130.81;6276715;20;2753501;-45
2024/02/20 01:11:14;;;;;;;;;12.00;8.00;;;;;5.97;100.00;100125.72;6280285;20;2763856;-46
2024/02/20 01:13:42;;;;;;;;;11.50;8.00;;;;;6.03;100.00;100136.19;6276705;20;2769072;-45
2024/02/20 01:16:10;;;;;;;;;13.50;9.00;;;;;6.02;100.00;100136.25;6283414;20;2756496;-47
2024/02/20 01:18:41;;;;;;;;;9.00;9.00;;;;;6.09;100.00;100135.09;6309792;20;2751446;-46
2024/02/20 01:21:09;;;;;;;;;12.00;10.50;;;;;5.94;100.00;100131.19;6275375;20;2769090;-47
2024/02/20 01:23:37;;;;;;;;;6.00;6.00;;;;;5.94;100.00;100126.72;6284260;20;2737811;-48
2024/02/20 01:26:05;;;;;;;;;6.50;6.50;;;;;5.82;100.00;100126.25;6311645;20;2747247;-45
2024/02/20 01:28:34;;;;;;;;;9.50;7.00;;;;;5.97;100.00;100119.53;6309819;20;2760726;-46
2024/02/20 01:31:02;;;;;;;;;8.50;7.75;;;;;5.82;100.00;100120.91;6297545;20;1816174;-45
2024/02/20 01:33:31;;;;;;;;;8.00;6.25;;;;;5.78;100.00;100117.50;6328800;20;1808717;-46
2024/02/20 01:36:01;;;;;;;;;10.20;7.60;;;;;5.80;100.00;100113.00;6335374;20;2741418;-44
2024/02/20 01:38:29;;;;;;;;;12.00;9.00;;;;;5.81;100.00;100113.84;6312595;20;2755484;-48
2024/02/20 01:40:57;;;;;;;;;6.50;6.50;;;;;5.81;100.00;100104.06;6310606;20;2744057;-48
2024/02/20 01:43:25;;;;;;;;;12.00;9.00;;;;;5.67;100.00;100095.69;6275955;20;2751391;-46
2024/02/20 01:45:53;;;;;;;;;10.00;7.50;;;;;5.75;100.00;100095.44;6282156;20;2734674;-46
2024/02/20 01:48:20;;;;;;;;;9.50;8.00;;;;;5.68;100.00;100086.75;6311249;20;2758661;-45
2024/02/20 01:50:48;;;;;;;;;10.00;10.00;;;;;5.59;100.00;100085.31;6280563;20;2756658;-47
2024/02/20 01:53:17;;;;;;;;;7.50;7.50;;;;;5.54;100.00;100083.72;6295686;20;1805582;-46
2024/02/20 01:55:45;;;;;;;;;8.00;8.00;;;;;5.55;100.00;100080.13;6308451;20;2746167;-45
2024/02/20 01:58:13;;;;;;;;;6.00;6.00;;;;;5.58;100.00;100069.38;6310013;20;2743896;-46
2024/02/20 02:00:42;;;;;;;;;8.00;7.00;;;;;5.48;100.00;100069.69;6277109;20;2748231;-47
2024/02/20 02:03:11;;;;;;;;;7.60;7.00;;;;;5.54;100.00;100073.06;6303723;20;2736819;-45
2024/02/20 02:05:40;;;;;;;;;7.00;7.00;;;;;5.59;100.00;100081.78;6328635;20;1813977;-45
2024/02/20 02:08:14;;;;;;;;;7.00;7.00;;;;;5.80;100.00;100078.34;6326896;20;1816001;-44
2024/02/20 02:10:43;;;;;;;;;7.50;7.50;;;;;5.68;100.00;100078.78;6312007;20;2733769;-45
2024/02/20 02:13:11;;;;;;;;;8.50;8.50;;;;;5.69;100.00;100078.72;6311390;20;2725367;-48
2024/02/20 02:15:41;;;;;;;;;8.50;6.50;;;;;5.79;100.00;100078.41;6326312;20;1813908;-48
2024/02/20 02:18:08;;;;;;;;;10.00;8.00;;;;;5.77;100.00;100075.81;6311927;20;2758619;-47
2024/02/20 02:20:36;;;;;;;;;8.50;8.50;;;;;5.96;100.00;100080.50;6307690;20;2746708;-45
2024/02/20 02:23:04;;;;;;;;;8.50;7.50;;;;;5.81;100.00;100072.09;6309096;20;2749303;-45
2024/02/20 02:25:32;;;;;;;;;8.00;7.00;;;;;5.83;100.00;100088.91;6309865;20;2738826;-48
2024/02/20 02:28:01;;;;;;;;;12.00;8.00;;;;;5.82;100.00;100081.84;6333796;20;2763819;-49
2024/02/20 02:30:29;;;;;;;;;6.00;6.00;;;;;6.01;100.00;100079.41;6277977;20;2748252;-45
2024/02/20 02:32:57;;;;;;;;;9.00;7.50;;;;;5.99;100.00;100075.06;6311867;20;2477365;-48
2024/02/20 02:35:25;;;;;;;;;8.00;7.00;;;;;5.99;100.00;100080.38;6311243;20;2737875;-49
2024/02/20 02:37:53;;;;;;;;;6.00;6.00;;;;;5.88;100.00;100078.94;6280121;20;2742984;-47
2024/02/20 02:40:21;;;;;;;;;7.00;7.00;;;;;6.06;100.00;100087.25;6310882;20;2743023;-47
2024/02/20 02:42:48;;;;;;;;;9.00;7.50;;;;;6.04;100.00;100079.28;6311101;20;2733714;-44
2024/02/20 02:45:17;;;;;;;;;2.00;1.00;;;;;5.91;100.00;100070.81;6327594;20;1818968;-47
2024/02/20 02:47:45;;;;;;;;;11.00;7.00;;;;;5.99;100.00;100086.56;6311103;20;2758635;-46
2024/02/20 02:50:13;;;;;;;;;6.00;6.00;;;;;6.02;100.00;100075.81;6326069;20;1819118;-44
2024/02/20 02:52:43;;;;;;;;;6.00;6.00;;;;;6.13;100.00;100083.41;6324921;20;1819241;-46
2024/02/20 02:55:11;;;;;;;;;7.00;7.00;;;;;6.13;100.00;100086.06;6307440;20;2734772;-47
2024/02/20 02:57:39;;;;;;;;;6.00;6.00;;;;;5.98;100.00;100087.50;6292000;20;1813941;-45
2024/02/20 03:00:11;;;;;;;;;7.00;7.00;;;;;6.00;100.00;100082.97;6310288;20;2733700;-46
2024/02/20 03:02:39;;;;;;;;;6.00;6.00;;;;;5.93;100.00;100087.69;6307538;20;2750284;-45
2024/02/20 03:05:09;;;;;;;;;8.20;7.60;;;;;5.81;100.00;100082.75;6300940;20;2739862;-44
2024/02/20 03:07:39;;;;;;;;;6.00;6.00;;;;;5.71;100.00;100086.66;6325219;20;1805543;-48
2024/02/20 03:10:08;;;;;;;;;7.75;7.25;;;;;5.90;100.00;100090.41;6323102;20;1817078;-46
2024/02/20 03:12:37;;;;;;;;;6.00;5.25;;;;;5.78;100.00;100080.19;6325029;20;1815598;-46
2024/02/20 03:15:05;;;;;;;;;9.00;6.00;;;;;5.91;100.00;100080.63;6305999;20;2758618;-52
2024/02/20 03:17:33;;;;;;;;;9.00;7.00;;;;;5.89;100.00;100083.34;6278294;20;2737175;-48
2024/02/20 03:20:04;;;;;;;;;2.25;1.00;;;;;5.92;100.00;100077.91;6324822;20;1812984;-50
2024/02/20 03:22:33;;;;;;;;;10.00;6.50;;;;;5.91;100.00;100086.81;6308127;20;2762879;-47
2024/02/20 03:25:05;;;;;;;;;5.50;3.00;;;;;5.98;100.00;100083.97;6294351;20;1811454;-45
2024/02/20 03:27:33;;;;;;;;;4.00;4.00;;;;;5.94;100.00;100089.41;6315036;20;2639856;-50
2024/02/20 03:30:02;;;;;;;;;6.00;6.00;;;;;5.82;100.00;100089.84;6325171;20;1819132;-52
2024/02/20 03:32:29;;;;;;;;;9.50;4.00;;;;;5.82;100.00;100089.84;6299735;20;2760680;-44
2024/02/20 03:34:58;;;;;;;;;7.00;4.50;;;;;5.93;100.00;100093.00;6294324;20;1818136;-53
2024/02/20 03:37:26;;;;;;;;;9.00;7.00;;;;;5.93;100.00;100093.00;6309175;20;2743028;-52
2024/02/20 03:39:54;;;;;;;;;7.00;7.00;;;;;5.77;100.00;100101.56;6311388;20;2729510;-50
2024/02/20 03:42:24;;;;;;;;;11.20;8.20;;;;;5.77;100.00;100093.59;6331733;20;2758662;-47
2024/02/20 03:44:52;;;;;;;;;6.75;5.25;;;;;5.88;100.00;100102.06;6321191;20;1817919;-50
2024/02/20 03:47:21;;;;;;;;;7.00;7.00;;;;;5.71;100.00;100099.97;6326293;20;1819148;-50
2024/02/20 03:49:50;;;;;;;;;6.00;6.00;;;;;5.80;100.00;100102.34;6306772;20;2747280;-51
2024/02/20 03:52:20;;;;;;;;;7.00;5.75;;;;;5.76;100.00;100106.00;6322776;20;1821314;-51
2024/02/20 03:54:48;;;;;;;;;6.00;6.00;;;;;5.96;100.00;100105.34;6322487;20;1818915;-46
2024/02/20 03:57:17;;;;;;;;;9.00;6.00;;;;;5.75;100.00;100108.75;6310158;20;2737940;-50
2024/02/20 03:59:46;;;;;;;;;7.75;6.75;;;;;5.80;100.00;100105.00;6325781;20;1807677;-47
2024/02/20 04:02:14;;;;;;;;;7.50;7.00;;;;;6.00;100.00;100108.75;6301932;20;2743075;-47
2024/02/20 04:04:42;;;;;;;;;8.50;6.00;;;;;5.64;100.00;100111.78;6324034;20;1819043;-46
2024/02/20 04:07:11;;;;;;;;;12.50;7.00;;;;;5.67;100.00;100117.00;6305860;20;2766920;-49
2024/02/20 04:09:39;;;;;;;;;11.00;8.50;;;;;5.46;100.00;100121.28;6274857;20;2758638;-49
2024/02/20 04:12:07;;;;;;;;;12.50;9.00;;;;;5.48;100.00;100128.28;6272564;20;2770119;-52
2024/02/20 04:14:37;;;;;;;;;13.80;12.80;;;;;5.49;100.00;100123.81;6296784;20;2794102;-50
2024/02/20 04:17:04;;;;;;;;;9.00;9.00;;;;;5.54;100.00;100126.34;6273646;20;2747284;-48
2024/02/20 04:19:33;;;;;;;;;23.00;21.00;;;;;5.39;100.00;100141.03;6271831;20;2829545;-47
2024/02/20 04:22:02;;;;;;;;;30.50;29.00;;;;;5.25;100.00;100130.84;6271285;20;2845197;-50
2024/02/20 04:24:30;;;;;;;;;20.00;18.33;;;;;5.38;100.00;100129.50;6271942;20;3563831;-49
2024/02/20 04:26:58;;;;;;;;;23.50;21.00;;;;;5.23;100.00;100132.66;6304621;20;2494029;-50
2024/02/20 04:29:27;;;;;;;;;13.00;13.00;;;;;4.91;100.00;100136.38;6274033;20;3539960;-47
2024/02/20 04:31:55;;;;;;;;;16.00;13.00;;;;;4.49;100.00;100134.94;6306062;20;2814050;-46
2024/02/20 04:34:23;;;;;;;;;11.00;9.00;;;;;4.28;100.00;100135.56;6304090;20;2777411;-46
2024/02/20 04:36:51;;;;;;;;;13.00;10.00;;;;;4.25;100.00;100141.84;6275806;20;2788825;-46
2024/02/20 04:39:20;;;;;;;;;13.00;12.00;;;;;4.31;100.00;100140.81;6275524;20;2781528;-47
2024/02/20 04:41:48;;;;;;;;;8.00;8.00;;;;;4.21;100.00;100147.28;6296795;20;1817127;-45
2024/02/20 04:44:16;;;;;;;;;15.00;12.00;;;;;4.09;100.00;100151.19;6302948;20;2814028;-43
2024/02/20 04:46:44;;;;;;;;;13.50;9.00;;;;;3.93;100.00;100150.72;6280604;20;2779439;-44
2024/02/20 04:49:12;;;;;;;;;13.00;10.00;;;;;4.12;100.00;100151.94;6281072;20;2789983;-43
2024/02/20 04:51:40;;;;;;;;;20.67;15.33;;;;;4.20;100.00;100157.06;6278472;20;3560667;-42
2024/02/20 04:54:09;;;;;;;;;18.50;16.00;;;;;3.91;100.00;100160.50;6309126;20;2844068;-44
2024/02/20 04:56:37;;;;;;;;;10.00;10.00;;;;;3.91;100.00;100157.84;6278280;20;2785750;-44
2024/02/20 04:59:05;;;;;;;;;20.00;16.33;;;;;3.76;100.00;100161.78;6277707;20;3566910;-43
2024/02/20 05:01:35;;;;;;;;;13.00;11.00;;;;;3.51;100.00;100156.22;6333919;20;2777907;-42
2024/02/20 05:04:03;;;;;;;;;11.00;9.00;;;;;3.85;100.00;100158.03;6277183;20;2767983;-43
2024/02/20 05:06:31;;;;;;;;;5.50;5.50;;;;;4.16;100.00;100152.72;6301559;20;1825334;-43
2024/02/20 05:08:59;;;;;;;;;10.50;7.00;;;;;4.13;100.00;100148.41;6312656;20;2753530;-44
2024/02/20 05:11:29;;;;;;;;;15.20;12.60;;;;;4.10;100.00;100158.22;6332614;20;2812774;-46
2024/02/20 05:13:57;;;;;;;;;11.00;10.50;;;;;3.49;100.00;100152.75;6277231;20;2786113;-43
2024/02/20 05:16:26;;;;;;;;;18.33;16.00;;;;;3.22;100.00;100149.84;6278236;20;3579514;-44
2024/02/20 05:18:55;;;;;;;;;28.00;21.50;;;;;3.21;100.00;100161.38;6309540;20;2852385;-43
2024/02/20 05:21:23;;;;;;;;;20.00;18.00;;;;;3.13;100.00;100150.06;6281018;20;3554396;-43
2024/02/20 05:23:51;;;;;;;;;27.50;23.00;;;;;3.21;100.00;100152.53;6277510;20;2500375;-45
2024/02/20 05:26:20;;;;;;;;;22.67;19.33;;;;;3.40;100.00;100156.50;6276802;20;3557575;-44
2024/02/20 05:28:49;;;;;;;;;18.00;18.00;;;;;3.39;100.00;100159.19;6278317;20;3560720;-44
2024/02/20 05:31:32;;;;;;;;;20.50;19.00;;;;;3.44;100.00;100159.94;6305626;20;2822201;-45
2024/02/20 05:34:02;;;;;;;;;23.00;22.00;;;;;3.91;100.00;100166.69;6281551;20;2833599;-44
2024/02/20 05:36:33;;;;;;;;;25.67;16.00;;;;;3.98;100.00;100170.06;6277285;20;3592958;-44
2024/02/20 05:39:02;;;;;;;;;20.67;17.33;;;;;4.29;100.00;100169.19;6278309;20;3563805;-44
2024/02/20 05:41:31;;;;;;;;;16.00;15.50;;;;;4.37;100.00;100167.19;6279333;20;2831521;-43
2024/02/20 05:44:01;;;;;;;;;19.33;16.00;;;;;4.30;100.00;100165.66;6276124;20;3550304;-43
2024/02/20 05:46:32;;;;;;;;;11.67;11.67;;;;;4.48;100.00;100174.91;6308740;20;3536788;-43
2024/02/20 05:49:03;;;;;;;;;20.67;16.67;;;;;4.38;100.00;100167.16;6311071;20;3558592;-47
2024/02/20 05:51:33;;;;;;;;;31.50;22.50;;;;;3.93;100.00;100167.53;6305484;20;2500919;-43
2024/02/20 05:54:02;;;;;;;;;29.50;24.50;;;;;3.80;100.00;100176.72;6275302;20;2853579;-45
2024/02/20 05:56:32;;;;;;;;;24.00;21.00;;;;;3.38;100.00;100174.25;6277536;20;2782729;-44
2024/02/20 05:58:59;;;;;;;;;33.00;24.50;;;;;3.10;100.00;100171.34;6305130;20;2862872;-45
2024/02/20 06:01:29;;;;;;;;;89.67;63.00;;;;;2.72;100.00;100178.41;6277229;20;3648288;-44
2024/02/20 06:04:04;;;;;;;;;77.00;56.00;;;;;2.68;100.00;100186.44;6307394;20;3651781;-44
2024/02/20 06:06:34;;;;;;;;;46.00;42.00;;;;;2.81;100.00;100186.16;6304790;20;2493024;-45
2024/02/20 06:09:04;;;;;;;;;49.67;42.00;;;;;3.12;100.00;100190.78;6279151;20;2873235;-44
2024/02/20 06:11:35;;;;;;;;;58.33;44.33;;;;;3.63;100.00;100192.22;6309803;20;2881742;-44
2024/02/20 06:14:04;;;;;;;;;55.00;45.50;;;;;3.18;100.00;100193.28;6308514;20;2858618;-42
2024/02/20 06:16:33;;;;;;;;;48.50;42.00;;;;;3.14;100.00;100204.88;6276818;20;2866946;-44
2024/02/20 06:19:01;;;;;;;;;59.00;47.50;;;;;3.99;100.00;100209.00;6277848;20;2853454;-43
2024/02/20 06:21:30;;;;;;;;;52.50;42.50;;;;;9.14;97.13;100223.16;6275665;20;2864830;-46
2024/02/20 06:24:00;;;;;;;;;49.33;40.33;;;;;11.79;66.54;100228.03;6276290;20;2879561;-44
2024/02/20 06:26:30;;;;;;;;;45.67;39.00;;;;;11.41;62.63;100224.88;6309812;20;3606562;-44
2024/02/20 06:29:00;;;;;;;;;43.00;37.00;;;;;7.17;78.42;100217.31;6278746;20;2871330;-48
2024/02/20 06:31:28;;;;;;;;;32.67;31.00;;;;;5.49;99.26;100220.56;6312486;20;3603483;-46
2024/02/20 06:33:58;;;;;;;;;42.33;36.67;;;;;5.70;100.00;100215.47;6271450;20;3610693;-46
2024/02/20 06:36:28;;;;;;;;;34.33;32.33;;;;;5.85;100.00;100225.63;6309213;20;2852479;-45
2024/02/20 06:38:57;;;;;;;;;35.00;30.67;;;;;5.70;100.00;100219.00;6310089;20;3583656;-45
2024/02/20 06:41:26;;;;;;;;;39.00;33.00;;;;;5.32;100.00;100228.22;6312422;20;3620034;-47
2024/02/20 06:43:55;;;;;;;;;56.00;45.00;;;;;5.12;100.00;100235.94;6274009;20;2861775;-46
2024/02/20 06:46:26;;;;;;;;;44.33;35.67;;;;;5.73;100.00;100237.53;6309491;20;2864874;-45
2024/02/20 06:48:55;;;;;;;;;35.00;32.00;;;;;6.38;100.00;100233.56;6311013;20;3604406;-48
2024/02/20 06:51:24;;;;;;;;;31.00;31.00;;;;;6.78;99.57;100237.47;6278916;20;2838815;-51
2024/02/20 06:53:54;;;;;;;;;31.00;29.33;;;;;6.89;100.00;100239.72;6274500;20;2854516;-46
2024/02/20 06:56:23;;;;;;;;;45.00;36.67;;;;;7.37;98.63;100243.22;6308927;20;3624208;-46
2024/02/20 06:58:52;;;;;;;;;25.67;23.67;;;;;8.39;94.52;100240.81;6277894;20;3602725;-48
2024/02/20 07:01:21;;;;;;;;;28.33;23.00;;;;;9.36;85.67;100242.63;6273117;20;2852340;-47
2024/02/20 07:03:52;;;;;;;;;21.00;20.00;;;;;11.18;76.75;100244.97;6304230;20;2834509;-48
2024/02/20 07:06:23;;;;;;;;;26.50;26.50;;;;;13.95;60.68;100259.63;6276670;20;2848196;-49
2024/02/20 07:08:53;;;;;;;;;27.00;25.50;;;;;14.74;56.39;100259.75;6278337;20;2846159;-48
2024/02/20 07:11:21;;;;;;;;;26.33;23.33;;;;;16.97;49.02;100268.53;6279201;20;3575256;-50
2024/02/20 07:13:52;;;;;;;;;24.00;21.50;;;;;17.73;45.85;100269.63;6305628;20;2830519;-47
2024/02/20 07:16:21;;;;;;;;;18.00;16.50;;;;;19.33;43.00;100281.41;6277344;20;2831559;-50
2024/02/20 07:18:50;;;;;;;;;17.67;16.00;;;;;18.26;43.50;100275.19;6275175;20;3552361;-48
2024/02/20 07:21:18;;;;;;;;;12.33;12.00;;;;;16.26;47.10;100267.66;6306811;20;3525384;-45
2024/02/20 07:23:46;;;;;;;;;13.00;11.50;;;;;9.99;69.46;100258.31;6305375;20;2788837;-45
2024/02/20 07:26:14;;;;;;;;;13.00;11.00;;;;;9.83;78.20;100257.38;6282947;20;2789940;-45
2024/02/20 07:28:42;;;;;;;;;10.50;9.50;;;;;13.63;59.73;100264.44;6284022;20;2777503;-44
2024/02/20 07:31:10;;;;;;;;;8.00;8.00;;;;;10.66;70.99;100263.88;6278543;20;2756544;-44
2024/02/20 07:33:38;;;;;;;;;11.00;10.00;;;;;10.00;77.13;100254.69;6306150;20;2672207;-45
2024/02/20 07:36:11;;;;;;;;;10.40;9.00;;;;;10.10;79.29;100252.41;6301494;20;2768002;-45
2024/02/20 07:38:44;;;;;;;;;10.00;10.00;;;;;9.45;83.32;100255.59;6277772;20;3509663;-45
2024/02/20 07:41:12;;;;;;;;;12.00;9.00;;;;;10.21;82.50;100263.47;6309087;20;2768008;-44
2024/02/20 07:43:43;;;;;;;;;7.00;6.00;;;;;10.37;81.99;100263.59;6280981;20;2729481;-44
2024/02/20 07:46:15;;;;;;;;;9.71;9.00;;;;;9.80;82.58;100263.75;6318276;20;1798255;-43
2024/02/20 07:48:45;;;;;;;;;7.40;7.40;;;;;10.03;82.54;100261.72;6333190;20;2746090;-44
2024/02/20 07:51:15;;;;;;;;;9.00;9.00;;;;;10.31;81.38;100261.22;6309164;20;2748244;-43
2024/02/20 07:53:47;;;;;;;;;9.20;9.20;;;;;10.09;82.22;100264.97;6315369;20;2485726;-45
2024/02/20 07:56:27;;;;;;;;;8.00;7.00;;;;;10.35;78.31;100264.63;6310016;20;2741936;-44
2024/02/20 07:58:55;;;;;;;;;9.50;9.50;;;;;10.17;81.80;100272.63;6271923;20;2767993;-46
2024/02/20 08:01:24;;;;;;;;;10.00;8.00;;;;;10.64;80.86;100272.03;6279285;20;2764865;-46
2024/02/20 08:03:54;;;;;;;;;10.50;9.50;;;;;10.28;82.93;100270.31;6274734;20;2779470;-45
2024/02/20 08:06:23;;;;;;;;;10.00;10.00;;;;;10.48;79.55;100268.44;6274959;20;2790012;-43
2024/02/20 08:08:51;;;;;;;;;13.00;9.00;;;;;10.58;80.27;100266.97;6276131;20;2777488;-44
2024/02/20 08:11:19;;;;;;;;;14.00;12.67;;;;;10.82;79.08;100269.31;6279211;20;3537862;-45
2024/02/20 08:13:49;;;;;;;;;8.50;7.00;;;;;10.94;78.42;100268.69;6310826;20;2725390;-43
2024/02/20 08:16:18;;;;;;;;;11.00;11.00;;;;;10.60;77.20;100265.09;6277417;20;2792054;-44
2024/02/20 08:18:46;;;;;;;;;13.00;13.00;;;;;10.82;77.32;100274.69;6307987;20;2780507;-44
2024/02/20 08:21:14;;;;;;;;;11.50;11.50;;;;;10.72;79.75;100272.50;6283165;20;2791005;-43
2024/02/20 08:23:43;;;;;;;;;14.67;13.00;;;;;10.68;81.27;100276.28;6279311;20;3529425;-42
2024/02/20 08:26:12;;;;;;;;;11.00;11.00;;;;;10.98;78.29;100270.25;6314442;20;3515951;-43
2024/02/20 08:28:41;;;;;;;;;16.00;12.67;;;;;10.94;81.03;100274.03;6312657;20;3538868;-43
2024/02/20 08:31:11;;;;;;;;;15.33;12.67;;;;;11.60;77.13;100263.22;6311983;20;2813864;-44
2024/02/20 08:33:42;;;;;;;;;9.00;9.00;;;;;11.99;74.25;100270.00;6356810;20;1798247;-43
2024/02/20 08:36:13;;;;;;;;;8.71;8.71;;;;;11.71;76.80;100262.59;6356022;20;1796577;-43
2024/02/20 08:38:41;;;;;;;;;7.00;7.00;;;;;11.85;72.36;100268.06;6314379;20;2744204;-44
2024/02/20 08:41:09;;;;;;;;;6.00;6.00;;;;;11.93;71.51;100267.66;6284162;20;2741031;-42
2024/02/20 08:43:37;;;;;;;;;5.00;5.00;;;;;11.71;71.92;100267.13;6300064;20;1814017;-43
2024/02/20 08:46:06;;;;;;;;;5.00;5.00;;;;;12.03;70.17;100266.19;6316338;20;2745180;-45
2024/02/20 08:48:35;;;;;;;;;5.50;5.50;;;;;11.73;70.73;100270.59;6283828;20;2740890;-44
2024/02/20 08:51:03;;;;;;;;;6.00;4.00;;;;;11.77;70.61;100269.44;6282654;20;2743087;-43
2024/02/20 08:53:31;;;;;;;;;7.00;7.00;;;;;12.37;69.07;100274.94;6282071;20;2746246;-43
2024/02/20 08:55:59;;;;;;;;;6.00;3.50;;;;;11.64;69.25;100274.69;6281792;20;2752405;-46
2024/02/20 08:58:27;;;;;;;;;4.50;4.50;;;;;12.06;69.47;100279.44;6285326;20;2752362;-43
2024/02/20 09:00:54;;;;;;;;;4.00;3.50;;;;;12.26;65.95;100274.72;6281513;20;2750287;-43
2024/02/20 09:03:28;;;;;;;;;4.50;4.50;;;;;12.21;69.05;100279.50;6281868;20;2734804;-43
2024/02/20 09:05:56;;;;;;;;;6.00;6.00;;;;;12.12;68.38;100280.06;6285246;20;2737795;-44
2024/02/20 09:08:24;;;;;;;;;4.00;4.00;;;;;11.66;67.10;100278.13;6283941;20;2751760;-44
2024/02/20 09:10:52;;;;;;;;;3.00;1.50;;;;;12.11;67.21;100276.47;6284357;20;2742037;-45
2024/02/20 09:13:20;;;;;;;;;4.00;3.00;;;;;12.07;67.93;100289.25;6284606;20;2727536;-43
2024/02/20 09:15:50;;;;;;;;;5.00;3.00;;;;;12.18;65.89;100285.94;6283859;20;2746219;-45
2024/02/20 09:18:18;;;;;;;;;3.00;3.00;;;;;12.46;65.19;100285.16;6283177;20;2740056;-43
2024/02/20 09:20:46;;;;;;;;;4.00;4.00;;;;;12.45;67.13;100287.94;6284461;20;2749266;-43
2024/02/20 09:23:14;;;;;;;;;3.00;3.00;;;;;12.40;64.34;100285.53;6283424;20;2733630;-45
2024/02/20 09:25:43;;;;;;;;;4.00;3.00;;;;;12.21;65.25;100285.75;6284971;20;2739925;-43
2024/02/20 09:28:11;;;;;;;;;4.00;4.00;;;;;12.35;64.94;100278.66;6283534;20;2738853;-44
2024/02/20 09:30:40;;;;;;;;;6.00;6.00;;;;;12.80;64.20;100288.53;6284602;20;2739971;-44
2024/02/20 09:33:07;;;;;;;;;8.00;6.50;;;;;12.29;65.43;100283.47;6283495;20;2741957;-42
2024/02/20 09:35:37;;;;;;;;;34.67;29.00;;;;;12.45;65.45;100288.84;6276736;20;3618995;-42
2024/02/20 09:38:06;;;;;;;;;38.67;31.67;;;;;12.94;63.03;100291.22;6312480;20;3630450;-43
2024/02/20 09:40:36;;;;;;;;;40.67;33.00;;;;;13.07;62.82;100298.56;6279509;20;3616911;-44
2024/02/20 09:43:04;;;;;;;;;5.00;5.00;;;;;12.91;62.93;100296.81;6312106;20;2751319;-44
2024/02/20 09:45:39;;;;;;;;;5.50;5.50;;;;;13.30;62.85;100295.31;6301653;20;1805370;-45
2024/02/20 09:48:09;;;;;;;;;7.50;4.50;;;;;13.51;62.17;100298.50;6312590;20;2750326;-44
2024/02/20 09:50:43;;;;;;;;;2.00;2.00;;;;;13.20;60.93;100290.56;6283496;20;2754507;-46
2024/02/20 09:53:13;;;;;;;;;3.50;3.50;;;;;13.29;62.96;100290.88;6280901;20;2752438;-46
2024/02/20 09:55:45;;;;;;;;;4.00;4.00;;;;;12.95;60.10;100292.09;6283857;20;2754440;-44
2024/02/20 09:58:13;;;;;;;;;3.00;3.00;;;;;13.50;60.17;100293.19;6283388;20;2735804;-46
2024/02/20 10:00:41;;;;;;;;;2.00;2.00;;;;;13.42;57.96;100298.19;6283500;20;2742384;-45
2024/02/20 10:03:09;;;;;;;;;3.00;3.00;;;;;13.26;60.46;100293.78;6282181;20;2747179;-47
2024/02/20 10:05:45;;;;;;;;;3.50;3.50;;;;;13.78;58.80;100289.56;6283980;20;2750291;-44
2024/02/20 10:08:13;;;;;;;;;2.00;2.00;;;;;13.67;58.82;100294.81;6284202;20;2733660;-45
2024/02/20 10:10:46;;;;;;;;;2.50;2.50;;;;;13.75;58.18;100293.34;6284698;20;2749434;-44
2024/02/20 10:13:14;;;;;;;;;3.00;3.00;;;;;13.87;58.81;100296.19;6283724;20;2746124;-44
2024/02/20 10:15:42;;;;;;;;;5.50;3.00;;;;;13.39;58.65;100297.44;6277539;20;2748270;-44
2024/02/20 10:18:14;;;;;;;;;5.50;4.00;;;;;13.42;59.84;100296.38;6280917;20;2751369;-44
2024/02/20 10:20:42;;;;;;;;;6.00;6.00;;;;;13.27;61.49;100300.03;6284997;20;2732613;-44
2024/02/20 10:23:13;;;;;;;;;8.00;7.50;;;;;13.48;59.95;100292.41;6276081;20;2746156;-45
2024/02/20 10:25:43;;;;;;;;;11.20;8.00;;;;;13.04;62.46;100293.38;6306507;20;2755529;-48
2024/02/20 10:28:11;;;;;;;;;6.50;6.50;;;;;13.25;60.91;100293.84;6280017;20;2744076;-45
2024/02/20 10:30:41;;;;;;;;;12.80;10.80;;;;;13.92;58.75;100286.81;6301146;20;2794142;-43
2024/02/20 10:33:11;;;;;;;;;3.00;3.00;;;;;13.45;59.20;100290.75;6283481;20;2732615;-43
2024/02/20 10:35:40;;;;;;;;;14.00;11.00;;;;;13.31;60.14;100282.69;6275458;20;2605626;-43
2024/02/20 10:38:11;;;;;;;;;5.50;5.50;;;;;13.43;59.79;100281.94;6284518;20;2741979;-45
2024/02/20 10:40:39;;;;;;;;;7.00;7.00;;;;;13.75;60.02;100277.16;6280404;20;2739889;-48
2024/02/20 10:43:07;;;;;;;;;6.00;6.00;;;;;13.79;59.15;100275.97;6279274;20;2738844;-43
2024/02/20 10:45:37;;;;;;;;;5.50;5.50;;;;;13.96;58.37;100276.72;6283197;20;2743051;-44
2024/02/20 10:48:06;;;;;;;;;3.00;3.00;;;;;13.99;58.96;100273.81;6280875;20;2747592;-45
2024/02/20 10:50:35;;;;;;;;;5.00;5.00;;;;;13.61;58.77;100263.66;6279977;20;2747618;-48
2024/02/20 10:53:04;;;;;;;;;3.00;3.00;;;;;13.87;57.89;100258.41;6282535;20;2737874;-47
2024/02/20 10:55:33;;;;;;;;;6.00;6.00;;;;;13.41;59.55;100269.50;6279462;20;2746181;-47
2024/02/20 10:58:02;;;;;;;;;3.50;3.50;;;;;13.83;58.07;100264.00;6280708;20;2750435;-47
2024/02/20 11:00:35;;;;;;;;;4.50;4.50;;;;;14.02;57.70;100252.00;6281409;20;2748373;-49
2024/02/20 11:03:08;;;;;;;;;10.33;9.00;;;;;14.21;56.88;100248.91;6280293;20;2766081;-45
2024/02/20 11:05:37;;;;;;;;;18.00;16.00;;;;;14.29;55.93;100249.25;6308479;20;3554499;-44
2024/02/20 11:08:10;;;;;;;;;2.00;2.00;;;;;14.21;56.51;100238.97;6282971;20;2744078;-47
2024/02/20 11:10:41;;;;;;;;;3.00;1.50;;;;;14.67;54.66;100243.97;6283034;20;2744465;-43